الصفحة الرئيسية
METAR-TAF:

METAR-TAF

مطار :

مطار بينظير بوتو الدولي

إسلام آباد, باكستان

دائرة عرض: 33-37N, خط طول: 073-06E, ارتفاع: 507 متر

مراقبة الطقس الحالي

تاريخ ووقت الإصدار 2ساعات و 49 دقيقة قبل الساعة 17:00UTC
ريح 4 عقدة من الشمال الشرقي
درجة الحرارة 19°درجة مئوية
الرطوبة 64%
ضغط 1014 hPa
الرؤية: 7000 متر

METAR: OPRN 181700Z 05004KT 7000 NSC 19/12 Q1014 NOSIG RMK A2996

زمن: 00:49 (19:49 UTC)

توقعات

تاريخ ووقت الإصدار 4ساعات و 19 دقيقة قبل الساعة 15:30UTC
التوقعات صالحة من18 الساعة 18 UTC إلى 19 الساعة 24 UTC
ريح 10 عقدة من الجنوب/الجنوب الغربي
الرؤية: 7000 متر
مؤقت
من 19 الساعة 02 UTC إلى 19 الساعة 04 UTC
الرؤية: 3000 متر
غيوم قليلة على ارتفاع 10000 قدم
غيوم متفرقة على ارتفاع 20000 قدم
العجاج

TAF: OPRN 181530Z 1818/1924 21010KT 7000 NSC TEMPO 1902/1904 3000 HZ FEW100 SCT200

أرصاد الطقس والتوقعات من أكثر من 4000 مطار (تقارير الطقس للمطار METAR والتنبؤ بالطقس بالمطارTAF).

المحطات المتاحة هي النقط الصفراء والحمراء على الخريطة.

حرك المؤشر فوق النقطة لمعرفة اسم المحطة.

ثم انقر لمعرفة أرصاد وتوقعات الطقس.

لتغيير الخارطة: اضغط على الأزرار الخضراء مع رمز الصليب الأسود للتكبير. على الزر الأخضر مع شرطة للتصغير، أو على الأسهم الخضراء للخرائط المجاورة.


METAR-TAF: